Time;durP1;ratioP1;P1;durP2;ratioP2;P2;SDS_P1;SDS_P2;PMS_P1;PMS_P2;Temp;Humidity;BMP_temperature;BMP_pressure;BME280_temperature;BME280_humidity;BME280_pressure;Samples;Min_cycle;Max_cycle;Signal;HPM_P1;HPM_P2
2022/11/03 00:01:54;;;;;;;;;;;;;;;5.86;75.35;98572.88;4921807;28;19927;-59
2022/11/03 00:04:22;;;;;;;;;;;;;;;5.97;74.80;98569.19;4933215;28;19931;-59
2022/11/03 00:06:51;;;;;;;;;;;;;;;5.99;74.91;98567.81;4934969;29;19933;-59
2022/11/03 00:09:21;;;;;;;;;;;;;;;5.90;75.58;98568.56;4933959;29;19937;-59
2022/11/03 00:11:49;;;;;;;;;;;;;;;5.73;75.74;98566.88;4934403;29;19926;-59
2022/11/03 00:14:21;;;;;;;;;;;;;;;5.70;76.27;98558.50;4934560;29;20014;-59
2022/11/03 00:16:50;;;;;;;;;;;;;;;5.87;75.99;98556.44;4927420;28;19982;-59
2022/11/03 00:19:20;;;;;;;;;;;;;;;5.83;75.61;98559.94;4933058;29;20038;-59
2022/11/03 00:21:48;;;;;;;;;;;;;;;5.85;75.73;98555.88;4934252;29;19930;-59
2022/11/03 00:24:16;;;;;;;;;;;;;;;5.85;75.17;98552.38;4933313;29;19931;-59
2022/11/03 00:26:45;;;;;;;;;;;;;;;5.86;75.23;98546.72;4933091;29;20377;-59
2022/11/03 00:29:14;;;;;;;;;;;;;;;5.85;75.41;98544.28;4933665;29;19935;-59
2022/11/03 00:31:44;;;;;;;;;;;;;;;5.83;75.38;98546.44;4927455;28;20415;-59
2022/11/03 00:34:13;;;;;;;;;;;;;;;5.75;76.13;98545.06;4931763;29;20411;-59
2022/11/03 00:36:42;;;;;;;;;;;;;;;5.81;75.77;98543.22;4932805;29;19931;-59
2022/11/03 00:39:10;;;;;;;;;;;;;;;5.83;75.35;98541.03;4933512;29;20372;-59
2022/11/03 00:41:38;;;;;;;;;;;;;;;5.75;75.92;98540.50;4933142;29;19931;-59
2022/11/03 00:44:09;;;;;;;;;;;;;;;5.72;76.01;98541.00;4934258;29;19982;-59
2022/11/03 00:47:02;;;;;;;;;;;;;;;5.62;76.40;98538.28;4923025;28;20092;-59
2022/11/03 00:49:31;;;;;;;;;;;;;;;5.67;76.36;98522.13;4928586;29;19969;-59
2022/11/03 00:51:59;;;;;;;;;;;;;;;5.62;76.30;98519.41;4928884;29;19934;-59
2022/11/03 00:54:27;;;;;;;;;;;;;;;5.73;75.76;98521.06;4933881;29;19934;-59
2022/11/03 00:56:55;;;;;;;;;;;;;;;5.76;75.81;98520.53;4930734;29;19926;-59
2022/11/03 00:59:23;;;;;;;;;;;;;;;5.70;76.02;98527.00;4933792;29;19966;-59
2022/11/03 01:01:53;;;;;;;;;;;;;;;5.66;75.94;98525.91;4926916;28;20029;-59
2022/11/03 01:07:08;;;;;;;;;;;;;;;5.73;76.19;98507.56;4928243;29;19933;-59
2022/11/03 01:09:36;;;;;;;;;;;;;;;5.64;75.89;98506.47;4932698;29;20261;-59
2022/11/03 01:12:04;;;;;;;;;;;;;;;5.75;75.87;98510.84;4934694;29;20013;-59
2022/11/03 01:14:33;;;;;;;;;;;;;;;5.68;76.01;98501.38;4933701;29;19934;-59
2022/11/03 01:17:03;;;;;;;;;;;;;;;5.69;76.06;98498.41;4930006;28;19927;-59
2022/11/03 01:19:31;;;;;;;;;;;;;;;5.71;75.73;98495.47;4933405;29;19933;-59
2022/11/03 01:21:59;;;;;;;;;;;;;;;5.70;75.60;98494.66;4932731;29;20013;-59
2022/11/03 01:24:28;;;;;;;;;;;;;;;5.59;76.00;98481.38;4933620;29;19954;-59
2022/11/03 01:27:30;;;;;;;;;;;;;;;5.64;75.87;98484.91;4928411;29;20021;-59
2022/11/03 01:30:00;;;;;;;;;;;;;;;5.56;76.12;98482.72;4933438;29;19927;-59
2022/11/03 01:32:29;;;;;;;;;;;;;;;5.60;76.65;98483.81;4931378;28;19934;-59
2022/11/03 01:34:56;;;;;;;;;;;;;;;5.63;75.80;98472.50;4934942;29;19960;-59
2022/11/03 01:37:24;;;;;;;;;;;;;;;5.68;75.51;98469.81;4932878;29;19934;-59
2022/11/03 01:39:56;;;;;;;;;;;;;;;5.73;75.16;98477.13;4907549;29;20299;-59
2022/11/03 01:42:25;;;;;;;;;;;;;;;5.59;75.93;98468.72;4933017;29;19934;-59
2022/11/03 01:44:53;;;;;;;;;;;;;;;5.55;76.17;98464.94;4933879;29;19949;-59
2022/11/03 01:47:22;;;;;;;;;;;;;;;5.52;76.24;98460.06;4928940;28;19930;-59
2022/11/03 01:49:51;;;;;;;;;;;;;;;5.49;76.27;98455.22;4933167;29;19927;-59
2022/11/03 01:52:21;;;;;;;;;;;;;;;5.35;76.52;98460.28;4932189;29;19931;-59
2022/11/03 01:54:50;;;;;;;;;;;;;;;5.20;78.16;98455.63;4964181;28;19927;-59
2022/11/03 01:57:20;;;;;;;;;;;;;;;5.40;77.20;98452.22;4929359;29;19931;-59
2022/11/03 01:59:48;;;;;;;;;;;;;;;5.44;76.73;98452.50;4925492;29;20303;-59
2022/11/03 02:02:24;;;;;;;;;;;;;;;5.29;77.26;98453.25;4927445;28;19931;-59
2022/11/03 02:04:52;;;;;;;;;;;;;;;5.39;77.21;98447.09;4968072;28;19931;-59
2022/11/03 02:07:22;;;;;;;;;;;;;;;5.53;76.77;98442.81;4936924;29;19967;-59
2022/11/03 02:09:50;;;;;;;;;;;;;;;5.51;76.44;98442.28;4936611;29;20007;-59
2022/11/03 02:12:19;;;;;;;;;;;;;;;5.49;76.52;98450.66;4935405;29;20394;-59
2022/11/03 02:14:49;;;;;;;;;;;;;;;5.51;76.72;98439.59;4964584;28;20009;-59
2022/11/03 02:17:18;;;;;;;;;;;;;;;5.45;76.81;98437.97;4932351;28;19931;-59
2022/11/03 02:19:46;;;;;;;;;;;;;;;5.45;77.12;98435.25;4936862;29;19965;-59
2022/11/03 02:22:20;;;;;;;;;;;;;;;5.43;77.20;98424.75;4967688;28;20395;-59
2022/11/03 02:24:49;;;;;;;;;;;;;;;5.47;76.77;98420.44;4937165;29;20062;-59
2022/11/03 02:27:22;;;;;;;;;;;;;;;5.43;77.05;98413.16;4928014;29;20396;-59
2022/11/03 02:29:50;;;;;;;;;;;;;;;5.34;77.64;98420.94;4967270;28;19927;-59
2022/11/03 02:32:20;;;;;;;;;;;;;;;5.37;77.82;98415.00;4932097;28;19930;-59
2022/11/03 02:34:48;;;;;;;;;;;;;;;5.34;77.55;98422.84;4936461;29;19930;-59
2022/11/03 02:37:17;;;;;;;;;;;;;;;5.41;77.74;98418.00;4936985;29;19927;-59
2022/11/03 02:39:45;;;;;;;;;;;;;;;5.31;77.34;98415.28;4936624;29;19931;-59
2022/11/03 02:42:13;;;;;;;;;;;;;;;5.35;77.48;98405.59;4934923;29;20392;-59
2022/11/03 02:44:43;;;;;;;;;;;;;;;5.29;77.92;98404.78;4933317;29;19933;-59
2022/11/03 02:47:11;;;;;;;;;;;;;;;5.26;77.91;98403.41;4932149;28;19927;-59
2022/11/03 02:49:40;;;;;;;;;;;;;;;5.35;77.86;98402.91;4939559;29;20022;-59
2022/11/03 02:52:23;;;;;;;;;;;;;;;5.40;77.08;98400.22;4936650;29;20458;-59
2022/11/03 02:54:51;;;;;;;;;;;;;;;5.41;77.62;98401.84;4933850;29;19927;-59
2022/11/03 02:57:20;;;;;;;;;;;;;;;5.28;77.89;98391.56;4935172;29;19927;-59
2022/11/03 02:59:53;;;;;;;;;;;;;;;5.25;78.34;98382.94;4935269;29;19930;-60
2022/11/03 03:02:24;;;;;;;;;;;;;;;5.20;78.20;98377.53;4930583;28;19958;-59
2022/11/03 03:04:53;;;;;;;;;;;;;;;5.25;78.27;98369.47;4925795;29;20292;-59
2022/11/03 03:07:22;;;;;;;;;;;;;;;5.32;78.02;98373.78;4966193;28;20019;-59
2022/11/03 03:09:51;;;;;;;;;;;;;;;5.33;78.03;98367.34;4932242;29;19934;-59
2022/11/03 03:12:19;;;;;;;;;;;;;;;5.39;77.38;98374.34;4934070;29;19974;-59
2022/11/03 03:14:47;;;;;;;;;;;;;;;5.45;77.03;98373.28;4933247;29;19930;-59
2022/11/03 03:17:18;;;;;;;;;;;;;;;5.36;77.30;98364.09;4928940;29;19931;-59
2022/11/03 03:19:49;;;;;;;;;;;;;;;5.30;77.73;98354.38;4934081;29;20399;-59
2022/11/03 03:22:19;;;;;;;;;;;;;;;5.24;77.96;98357.06;4935499;29;19927;-60
2022/11/03 03:24:48;;;;;;;;;;;;;;;5.17;78.02;98356.53;4922996;29;19934;-59
2022/11/03 03:27:16;;;;;;;;;;;;;;;5.17;78.09;98355.72;4920552;29;19958;-59
2022/11/03 03:29:45;;;;;;;;;;;;;;;5.28;77.79;98351.16;4933975;29;19927;-59
2022/11/03 03:32:13;;;;;;;;;;;;;;;5.23;78.02;98350.06;4931436;28;19933;-59
2022/11/03 03:34:50;;;;;;;;;;;;;;;5.19;77.77;98348.97;4934182;29;20037;-59
2022/11/03 03:37:18;;;;;;;;;;;;;;;5.18;77.92;98352.75;4961380;28;19926;-59
2022/11/03 03:39:46;;;;;;;;;;;;;;;5.20;77.70;98345.19;4934198;29;19927;-59
2022/11/03 03:42:14;;;;;;;;;;;;;;;5.26;76.98;98343.31;4930573;29;19931;-59
2022/11/03 03:44:42;;;;;;;;;;;;;;;5.28;76.87;98337.69;4935457;29;19974;-59
2022/11/03 03:47:13;;;;;;;;;;;;;;;5.17;77.67;98339.56;4929928;29;19935;-59
2022/11/03 03:49:41;;;;;;;;;;;;;;;5.19;77.29;98338.19;4931079;29;20017;-59
2022/11/03 03:52:11;;;;;;;;;;;;;;;4.99;77.90;98321.97;4933900;29;19937;-59
2022/11/03 03:54:38;;;;;;;;;;;;;;;5.05;78.03;98329.00;4934835;29;19974;-59
2022/11/03 03:57:07;;;;;;;;;;;;;;;4.98;77.73;98321.16;4933308;29;20359;-59
2022/11/03 03:59:34;;;;;;;;;;;;;;;5.07;77.41;98320.66;4965656;28;19938;-59
2022/11/03 04:02:28;;;;;;;;;;;;;;;5.08;76.93;98317.72;4959903;28;19933;-59
2022/11/03 04:04:57;;;;;;;;;;;;;;;5.05;77.43;98315.53;4935125;29;19976;-59
2022/11/03 04:10:18;;;;;;;;;;;;;;;5.03;77.14;98325.78;4920736;29;20022;-59
2022/11/03 04:23:59;;;;;;;;;;;;;;;4.85;77.88;98310.91;4963695;28;19926;-59
2022/11/03 04:26:27;;;;;;;;;;;;;;;4.93;77.88;98310.38;4923812;29;19930;-59
2022/11/03 04:29:19;;;;;;;;;;;;;;;4.87;78.14;98303.38;4920166;29;19934;-59
2022/11/03 04:31:47;;;;;;;;;;;;;;;4.95;78.01;98305.56;4924217;28;19974;-59
2022/11/03 04:34:15;;;;;;;;;;;;;;;4.98;78.33;98304.22;4956608;28;19937;-59
2022/11/03 04:36:44;;;;;;;;;;;;;;;4.93;78.57;98301.50;4931219;29;19966;-59
2022/11/03 04:39:16;;;;;;;;;;;;;;;5.03;77.93;98290.75;4926410;29;19926;-59
2022/11/03 04:41:45;;;;;;;;;;;;;;;5.02;78.02;98286.47;4933254;29;19930;-59
2022/11/03 04:44:15;;;;;;;;;;;;;;;5.07;77.75;98280.28;4932745;29;20025;-59
2022/11/03 04:46:44;;;;;;;;;;;;;;;5.03;78.28;98280.00;4929700;28;19986;-59
2022/11/03 04:49:21;;;;;;;;;;;;;;;4.87;78.82;98289.09;4963237;28;20609;-59
2022/11/03 04:51:50;;;;;;;;;;;;;;;5.02;78.34;98291.03;4931374;29;20022;-59
2022/11/03 04:54:19;;;;;;;;;;;;;;;5.00;78.44;98283.19;4925709;29;19927;-59
2022/11/03 04:56:50;;;;;;;;;;;;;;;5.02;78.70;98281.06;4928785;29;19927;-59
2022/11/03 04:59:18;;;;;;;;;;;;;;;5.03;78.54;98277.28;4933794;29;19961;-59
2022/11/03 05:01:48;;;;;;;;;;;;;;;5.13;78.27;98274.63;4926845;28;19931;-59
2022/11/03 05:04:17;;;;;;;;;;;;;;;5.09;78.14;98262.75;4928265;29;19934;-59
2022/11/03 05:06:47;;;;;;;;;;;;;;;5.07;78.39;98262.22;4921923;29;19931;-59
2022/11/03 05:09:16;;;;;;;;;;;;;;;5.01;78.20;98252.53;4933983;29;20311;-59
2022/11/03 05:11:47;;;;;;;;;;;;;;;5.00;78.58;98251.69;4957289;28;20014;-59
2022/11/03 05:14:15;;;;;;;;;;;;;;;4.99;78.37;98250.09;4928568;29;19931;-59
2022/11/03 05:16:44;;;;;;;;;;;;;;;4.95;78.90;98242.81;4927845;28;19933;-59
2022/11/03 05:19:16;;;;;;;;;;;;;;;4.87;79.00;98248.72;4928780;29;19966;-59
2022/11/03 05:21:47;;;;;;;;;;;;;;;4.95;79.43;98248.19;4920964;29;20364;-59
2022/11/03 05:24:15;;;;;;;;;;;;;;;4.92;79.17;98237.97;4942295;29;20634;-59
2022/11/03 05:26:48;;;;;;;;;;;;;;;4.83;79.58;98236.88;4928647;29;19927;-63
2022/11/03 05:29:18;;;;;;;;;;;;;;;4.98;79.27;98231.50;4921635;29;19927;-60
2022/11/03 05:31:46;;;;;;;;;;;;;;;4.93;79.41;98224.22;4923846;28;19933;-59
2022/11/03 05:34:36;;;;;;;;;;;;;;;4.89;79.25;98222.34;4923274;29;19970;-59
2022/11/03 05:37:09;;;;;;;;;;;;;;;4.94;79.39;98212.38;4931396;29;19966;-59
2022/11/03 05:39:38;;;;;;;;;;;;;;;4.86;79.42;98212.91;4936960;29;19962;-59
2022/11/03 05:42:15;;;;;;;;;;;;;;;4.86;79.96;98196.78;4928956;29;20021;-59
2022/11/03 05:44:43;;;;;;;;;;;;;;;4.91;79.48;98199.47;4929870;29;20022;-59
2022/11/03 05:47:13;;;;;;;;;;;;;;;4.96;79.58;98196.78;4933170;28;19950;-59
2022/11/03 05:49:42;;;;;;;;;;;;;;;4.91;79.57;98201.34;4935488;29;19931;-59
2022/11/03 05:52:11;;;;;;;;;;;;;;;4.86;79.71;98198.66;4937750;29;20017;-59
2022/11/03 05:54:39;;;;;;;;;;;;;;;4.82;80.00;98198.38;4936195;29;19933;-59
2022/11/03 05:57:09;;;;;;;;;;;;;;;4.76;79.96;98194.06;4927860;29;19934;-59
2022/11/03 05:59:37;;;;;;;;;;;;;;;4.80;80.28;98188.97;4931288;29;20389;-58
2022/11/03 06:02:08;;;;;;;;;;;;;;;4.92;79.74;98186.81;4927089;28;19933;-58
2022/11/03 06:04:39;;;;;;;;;;;;;;;4.80;80.03;98180.88;4928359;29;20722;-58
2022/11/03 06:07:12;;;;;;;;;;;;;;;4.86;79.94;98175.22;4923167;29;20538;-58
2022/11/03 06:09:39;;;;;;;;;;;;;;;4.66;80.75;98172.50;4920825;29;20026;-58
2022/11/03 06:12:07;;;;;;;;;;;;;;;4.71;80.55;98175.22;4926894;29;19933;-57
2022/11/03 06:14:37;;;;;;;;;;;;;;;4.73;80.66;98170.34;4929462;29;19938;-58
2022/11/03 06:17:06;;;;;;;;;;;;;;;4.87;79.99;98173.34;4930664;28;19933;-58
2022/11/03 06:19:35;;;;;;;;;;;;;;;4.87;79.93;98168.75;4930064;29;19934;-58
2022/11/03 06:22:05;;;;;;;;;;;;;;;4.89;80.05;98163.09;4936379;29;19927;-57
2022/11/03 06:27:50;;;;;;;;;;;;;;;4.95;79.79;98181.72;4949184;29;19926;-58
2022/11/03 06:30:21;;;;;;;;;;;;;;;4.91;80.26;98180.63;4923396;28;19959;-57
2022/11/03 06:32:53;;;;;;;;;;;;;;;5.06;79.58;98170.91;4931279;29;19927;-57
2022/11/03 06:35:22;;;;;;;;;;;;;;;4.85;81.23;98172.81;4958961;28;19937;-57
2022/11/03 06:37:50;;;;;;;;;;;;;;;4.93;80.85;98181.16;4966056;28;19931;-58
2022/11/03 06:40:30;;;;;;;;;;;;;;;5.02;79.93;98178.75;4933520;29;19935;-57
2022/11/03 06:42:59;;;;;;;;;;;;;;;5.08;80.23;98174.16;4928233;29;19927;-58
2022/11/03 06:45:53;;;;;;;;;;;;;;;5.02;80.43;98176.06;4929189;28;19938;-58
2022/11/03 06:48:25;;;;;;;;;;;;;;;5.12;80.40;98181.44;4935341;29;19931;-58
2022/11/03 06:50:54;;;;;;;;;;;;;;;5.14;80.50;98179.28;4933392;29;19965;-58
2022/11/03 06:53:23;;;;;;;;;;;;;;;5.16;80.69;98173.63;4966804;28;20676;-58
2022/11/03 06:55:51;;;;;;;;;;;;;;;5.23;80.29;98171.47;4936813;29;19931;-58
2022/11/03 07:01:40;;;;;;;;;;;;;;;5.25;80.96;98172.00;4932353;28;19935;-58
2022/11/03 07:04:13;;;;;;;;;;;;;;;5.25;81.16;98175.50;4937445;29;19927;-58
2022/11/03 07:06:41;;;;;;;;;;;;;;;5.33;81.09;98167.97;4934108;29;19973;-57
2022/11/03 07:09:13;;;;;;;;;;;;;;;5.34;81.06;98169.59;4928026;29;20620;-58
2022/11/03 07:11:42;;;;;;;;;;;;;;;5.47;81.07;98160.94;4935980;29;19931;-57
2022/11/03 07:14:12;;;;;;;;;;;;;;;5.52;80.51;98158.25;4928352;29;20014;-58
2022/11/03 07:16:44;;;;;;;;;;;;;;;5.40;80.80;98155.84;4924011;28;20377;-57
2022/11/03 07:19:13;;;;;;;;;;;;;;;5.48;80.61;98159.84;4929855;29;20285;-58
2022/11/03 07:21:44;;;;;;;;;;;;;;;5.57;80.32;98162.81;4930620;29;20149;-58
2022/11/03 07:24:14;;;;;;;;;;;;;;;5.60;80.13;98148.81;4935476;28;20013;-58
2022/11/03 07:26:43;;;;;;;;;;;;;;;5.55;80.64;98146.94;4936306;29;19926;-58
2022/11/03 07:29:13;;;;;;;;;;;;;;;5.57;80.56;98147.44;4935225;29;20352;-58
2022/11/03 07:31:43;;;;;;;;;;;;;;;5.61;80.97;98142.34;4931423;28;19927;-58
2022/11/03 07:34:11;;;;;;;;;;;;;;;5.72;80.48;98144.72;4934280;29;20384;-58
2022/11/03 07:36:39;;;;;;;;;;;;;;;5.67;80.33;98138.53;4932846;29;19985;-58
2022/11/03 07:39:08;;;;;;;;;;;;;;;5.67;80.94;98139.34;4935791;29;19933;-58
2022/11/03 07:41:37;;;;;;;;;;;;;;;5.84;80.60;98132.81;4931302;29;20191;-58
2022/11/03 07:44:05;;;;;;;;;;;;;;;5.92;80.08;98129.59;4932418;29;19937;-58
2022/11/03 07:46:58;;;;;;;;;;;;;;;5.86;80.43;98122.56;4930212;28;19962;-58
2022/11/03 07:49:29;;;;;;;;;;;;;;;5.97;80.36;98116.09;4928354;29;19926;-58
2022/11/03 07:51:57;;;;;;;;;;;;;;;6.00;80.25;98110.13;4934717;29;19966;-58
2022/11/03 07:54:25;;;;;;;;;;;;;;;6.07;80.39;98101.75;4933928;29;19927;-57
2022/11/03 07:56:54;;;;;;;;;;;;;;;6.13;80.11;98112.25;4935577;29;19953;-58
2022/11/03 07:59:23;;;;;;;;;;;;;;;6.18;80.17;98108.69;4935151;29;20159;-58
2022/11/03 08:01:57;;;;;;;;;;;;;;;6.21;79.98;98102.75;4958092;28;19973;-58
2022/11/03 08:04:26;;;;;;;;;;;;;;;6.26;79.91;98094.63;4932301;29;19955;-58
2022/11/03 08:06:56;;;;;;;;;;;;;;;6.33;80.13;98083.53;4933269;29;20006;-58
2022/11/03 08:09:24;;;;;;;;;;;;;;;6.43;79.58;98078.88;4925124;29;19976;-58
2022/11/03 08:11:52;;;;;;;;;;;;;;;6.50;79.78;98075.88;4925584;29;19931;-58
2022/11/03 08:14:20;;;;;;;;;;;;;;;6.62;79.24;98057.44;4921378;29;19977;-58
2022/11/03 08:16:49;;;;;;;;;;;;;;;6.67;79.44;98049.28;4923426;28;20034;-58
2022/11/03 08:22:11;;;;;;;;;;;;;;;6.79;79.07;98041.63;4932219;29;19933;-58
2022/11/03 08:25:04;;;;;;;;;;;;;;;6.92;78.65;98039.34;4934875;29;19926;-58
2022/11/03 08:27:32;;;;;;;;;;;;;;;7.04;78.35;98040.59;4930359;29;19927;-57
2022/11/03 08:30:02;;;;;;;;;;;;;;;7.11;78.69;98034.03;4932188;29;19982;-58
2022/11/03 08:32:56;;;;;;;;;;;;;;;7.20;78.66;98041.25;4963986;28;19926;-58
2022/11/03 08:35:24;;;;;;;;;;;;;;;7.35;77.99;98038.38;4933887;29;19927;-58
2022/11/03 08:37:58;;;;;;;;;;;;;;;7.45;77.61;98037.44;4933977;29;19927;-58
2022/11/03 08:40:26;;;;;;;;;;;;;;;7.52;77.46;98029.00;4931531;29;19982;-58
2022/11/03 08:42:54;;;;;;;;;;;;;;;7.59;77.92;98022.16;4933741;29;19986;-58
2022/11/03 08:45:22;;;;;;;;;;;;;;;7.75;77.66;98013.84;4930083;28;20614;-58
2022/11/03 08:47:50;;;;;;;;;;;;;;;7.79;77.71;98007.56;4934570;29;19927;-57
2022/11/03 08:50:19;;;;;;;;;;;;;;;7.92;77.46;97997.13;4930665;29;19938;-57
2022/11/03 08:52:53;;;;;;;;;;;;;;;8.08;77.33;97998.53;4934778;29;19931;-58
2022/11/03 08:55:23;;;;;;;;;;;;;;;8.21;76.94;97986.19;4933506;29;19962;-58
2022/11/03 08:57:52;;;;;;;;;;;;;;;8.31;76.54;97986.81;4934576;29;19927;-58
2022/11/03 09:00:21;;;;;;;;;;;;;;;8.44;76.65;97976.38;4927873;28;19937;-58
2022/11/03 09:03:14;;;;;;;;;;;;;;;8.53;76.10;97974.59;4933743;29;20672;-58
2022/11/03 09:05:43;;;;;;;;;;;;;;;8.66;75.80;97976.53;4956337;28;20018;-58
2022/11/03 09:08:11;;;;;;;;;;;;;;;8.78;75.47;97965.22;4934373;29;19970;-57
2022/11/03 09:11:00;;;;;;;;;;;;;;;8.85;75.74;97963.75;4918888;29;19935;-58
2022/11/03 09:13:28;;;;;;;;;;;;;;;8.93;75.55;97957.63;4932997;29;19970;-58
2022/11/03 09:15:56;;;;;;;;;;;;;;;9.01;75.53;97960.75;4925018;28;19988;-58
2022/11/03 09:18:24;;;;;;;;;;;;;;;9.09;75.87;97955.44;4923387;29;20414;-58
2022/11/03 09:20:52;;;;;;;;;;;;;;;9.30;74.90;97941.47;4933381;29;19934;-57
2022/11/03 09:23:21;;;;;;;;;;;;;;;9.37;74.90;97939.97;4932662;29;19939;-58
2022/11/03 09:25:51;;;;;;;;;;;;;;;9.49;74.30;97928.63;4929743;29;20423;-58
2022/11/03 09:28:21;;;;;;;;;;;;;;;9.72;73.74;97929.47;4933650;29;19927;-58
2022/11/03 09:30:49;;;;;;;;;;;;;;;9.80;74.08;97933.34;4919189;28;19931;-58
2022/11/03 09:33:18;;;;;;;;;;;;;;;9.91;73.81;97922.00;4930196;29;20455;-57
2022/11/03 09:35:46;;;;;;;;;;;;;;;10.09;73.43;97903.13;4928850;29;20596;-58
2022/11/03 09:38:14;;;;;;;;;;;;;;;10.21;73.13;97897.94;4935493;29;19931;-57
2022/11/03 09:40:44;;;;;;;;;;;;;;;10.39;72.37;97898.91;4928930;29;19962;-58
2022/11/03 09:43:15;;;;;;;;;;;;;;;10.52;72.25;97894.50;4934104;29;20311;-58
2022/11/03 09:45:44;;;;;;;;;;;;;;;10.70;71.41;97883.38;4931151;29;19930;-58
2022/11/03 09:48:37;;;;;;;;;;;;;;;10.82;71.21;97885.53;4933504;29;19926;-58
2022/11/03 09:51:05;;;;;;;;;;;;;;;11.02;70.65;97893.16;4929453;29;20310;-58
2022/11/03 09:53:34;;;;;;;;;;;;;;;11.13;70.44;97887.41;4933517;29;20021;-58
2022/11/03 09:56:02;;;;;;;;;;;;;;;11.22;69.42;97894.47;4932773;29;19934;-58
2022/11/03 09:58:32;;;;;;;;;;;;;;;11.26;70.21;97895.44;4933150;29;19935;-58
2022/11/03 10:01:05;;;;;;;;;;;;;;;11.34;69.76;97901.22;4934135;29;19938;-58
2022/11/03 10:03:34;;;;;;;;;;;;;;;11.41;69.41;97891.50;4933143;29;20064;-58
2022/11/03 10:06:03;;;;;;;;;;;;;;;11.45;69.68;97884.31;4933929;29;20032;-58
2022/11/03 10:08:32;;;;;;;;;;;;;;;11.55;68.62;97880.44;4932237;29;19927;-58
2022/11/03 10:11:00;;;;;;;;;;;;;;;11.59;68.84;97886.06;4934057;29;19933;-58
2022/11/03 10:13:29;;;;;;;;;;;;;;;11.64;68.56;97875.84;4963930;28;19931;-58
2022/11/03 10:15:58;;;;;;;;;;;;;;;11.70;68.02;97873.75;4933984;29;19936;-58
2022/11/03 10:18:28;;;;;;;;;;;;;;;11.68;68.44;97863.19;4927370;29;19926;-58
2022/11/03 10:20:56;;;;;;;;;;;;;;;11.71;68.37;97850.84;4932802;29;19950;-58
2022/11/03 10:23:25;;;;;;;;;;;;;;;11.76;68.53;97853.41;4932692;29;20618;-58
2022/11/03 10:25:56;;;;;;;;;;;;;;;11.84;67.95;97836.34;4931850;29;19934;-57
2022/11/03 10:28:26;;;;;;;;;;;;;;;11.87;68.14;97832.94;4937217;29;19942;-58
2022/11/03 10:30:56;;;;;;;;;;;;;;;11.90;68.29;97832.31;4934832;29;20356;-58
2022/11/03 10:33:40;;;;;;;;;;;;;;;11.92;68.28;97835.50;4936485;29;19930;-58
2022/11/03 10:36:24;;;;;;;;;;;;;;;11.97;68.07;97837.28;4928515;29;19930;-58
2022/11/03 10:38:53;;;;;;;;;;;;;;;11.97;68.40;97840.78;4935297;29;19927;-58
2022/11/03 10:41:24;;;;;;;;;;;;;;;12.01;68.01;97833.59;4936888;29;19950;-58
2022/11/03 10:44:00;;;;;;;;;;;;;;;12.02;67.92;97840.63;4935953;29;19967;-58
2022/11/03 10:46:29;;;;;;;;;;;;;;;12.05;67.78;97836.47;4967153;28;19974;-58
2022/11/03 10:49:19;;;;;;;;;;;;;;;12.05;68.27;97833.75;4928472;29;19927;-57
2022/11/03 10:51:50;;;;;;;;;;;;;;;12.11;67.67;97832.47;4934804;29;20041;-58
2022/11/03 10:54:18;;;;;;;;;;;;;;;12.19;67.25;97822.66;4936093;29;20066;-57
2022/11/03 10:56:47;;;;;;;;;;;;;;;12.22;66.94;97822.81;4934054;29;19966;-58
2022/11/03 10:59:17;;;;;;;;;;;;;;;12.37;66.65;97818.78;4936721;29;20478;-57
2022/11/03 11:01:46;;;;;;;;;;;;;;;12.32;67.44;97808.06;4934362;29;20399;-58
2022/11/03 11:04:16;;;;;;;;;;;;;;;12.35;67.32;97812.84;4932206;29;19982;-58
2022/11/03 11:06:46;;;;;;;;;;;;;;;12.44;66.93;97808.19;4924008;28;19978;-58
2022/11/03 11:09:14;;;;;;;;;;;;;;;12.44;66.98;97802.72;4927279;29;19934;-58
2022/11/03 11:11:57;;;;;;;;;;;;;;;12.51;66.90;97802.22;4967050;28;19949;-58
2022/11/03 11:14:35;;;;;;;;;;;;;;;12.57;67.19;97790.84;4940298;28;20014;-58
2022/11/03 11:17:05;;;;;;;;;;;;;;;12.64;66.64;97779.41;4932335;28;19948;-58
2022/11/03 11:19:48;;;;;;;;;;;;;;;12.70;66.04;97777.31;4934762;29;19927;-58
2022/11/03 11:22:22;;;;;;;;;;;;;;;12.70;66.69;97786.28;4934502;29;19987;-58
2022/11/03 11:24:58;;;;;;;;;;;;;;;12.69;66.55;97776.50;4932394;29;19933;-58
2022/11/03 11:27:44;;;;;;;;;;;;;;;12.75;66.29;97775.19;4934127;29;20414;-58
2022/11/03 11:30:28;;;;;;;;;;;;;;;12.86;65.78;97764.72;4925724;29;19965;-58
2022/11/03 11:36:09;;;;;;;;;;;;;;;13.03;65.98;97758.34;4926547;29;19950;-58
2022/11/03 11:39:00;;;;;;;;;;;;;;;13.10;65.51;97756.72;4935446;29;19930;-58
2022/11/03 11:41:47;;;;;;;;;;;;;;;13.16;65.19;97745.59;4932874;29;19931;-57
2022/11/03 11:44:33;;;;;;;;;;;;;;;13.20;64.99;97747.31;4933694;29;19935;-58
2022/11/03 11:47:03;;;;;;;;;;;;;;;13.30;64.63;97746.16;4935125;29;19926;-58
2022/11/03 11:49:31;;;;;;;;;;;;;;;13.24;65.08;97726.44;4931795;29;19970;-58
2022/11/03 11:52:01;;;;;;;;;;;;;;;13.27;64.99;97728.53;4931969;29;19978;-58
2022/11/03 11:54:29;;;;;;;;;;;;;;;13.30;64.92;97725.13;4935295;29;19974;-58
2022/11/03 11:56:56;;;;;;;;;;;;;;;13.33;65.05;97720.94;4935363;29;20045;-58
2022/11/03 11:59:25;;;;;;;;;;;;;;;13.34;64.73;97719.81;4925707;29;20038;-58
2022/11/03 12:01:53;;;;;;;;;;;;;;;13.30;64.66;97711.47;4932559;29;19941;-58
2022/11/03 12:04:24;;;;;;;;;;;;;;;13.30;64.64;97718.88;4934999;29;20327;-58
2022/11/03 12:06:54;;;;;;;;;;;;;;;13.25;65.04;97706.22;4932048;29;20276;-58
2022/11/03 12:09:23;;;;;;;;;;;;;;;13.34;64.86;97708.88;4934835;29;19933;-57
2022/11/03 12:11:52;;;;;;;;;;;;;;;13.29;65.00;97695.44;4934625;29;20018;-58
2022/11/03 12:14:24;;;;;;;;;;;;;;;13.29;65.31;97690.00;4928407;29;19927;-57
2022/11/03 12:16:52;;;;;;;;;;;;;;;13.33;65.34;97685.47;4934045;29;20420;-58
2022/11/03 12:19:38;;;;;;;;;;;;;;;13.28;65.56;97678.28;4932544;29;19931;-58
2022/11/03 12:22:07;;;;;;;;;;;;;;;13.30;65.21;97675.22;4931967;29;20388;-57
2022/11/03 12:27:42;;;;;;;;;;;;;;;13.26;65.36;97668.81;4933150;29;20296;-58
2022/11/03 12:30:14;;;;;;;;;;;;;;;13.21;65.77;97645.31;4934695;29;19933;-58
2022/11/03 12:35:37;;;;;;;;;;;;;;;13.19;65.96;97644.00;4933708;29;20054;-58
2022/11/03 12:38:05;;;;;;;;;;;;;;;13.16;66.49;97641.94;4933953;29;19926;-58
2022/11/03 12:40:32;;;;;;;;;;;;;;;13.18;66.23;97634.22;4961786;28;20292;-58
2022/11/03 12:43:26;;;;;;;;;;;;;;;13.07;66.46;97621.00;4935350;29;20021;-58
2022/11/03 12:45:55;;;;;;;;;;;;;;;13.05;66.75;97626.00;4964077;28;19934;-58
2022/11/03 12:48:23;;;;;;;;;;;;;;;13.03;66.73;97622.00;4933804;29;20383;-58
2022/11/03 12:50:53;;;;;;;;;;;;;;;13.03;67.17;97622.00;4934069;29;19926;-58
2022/11/03 12:53:21;;;;;;;;;;;;;;;13.05;66.95;97619.75;4932925;29;20025;-58
2022/11/03 12:55:49;;;;;;;;;;;;;;;13.04;66.97;97621.66;4933469;29;19926;-58
2022/11/03 12:58:17;;;;;;;;;;;;;;;13.10;67.32;97616.78;4934142;29;20054;-57
2022/11/03 13:01:39;;;;;;;;;;;;;;;13.16;67.07;97618.19;4929236;29;19926;-58
2022/11/03 13:04:08;;;;;;;;;;;;;;;13.26;66.09;97597.91;4934410;29;19935;-58
2022/11/03 13:06:37;;;;;;;;;;;;;;;13.22;66.35;97586.88;4933765;29;19974;-58
2022/11/03 13:09:05;;;;;;;;;;;;;;;13.23;66.74;97584.94;4934471;29;19927;-58
2022/11/03 13:14:25;;;;;;;;;;;;;;;13.15;66.49;97586.56;4930312;29;19927;-58
2022/11/03 13:16:54;;;;;;;;;;;;;;;13.18;66.56;97587.84;4934176;29;19978;-58
2022/11/03 13:19:25;;;;;;;;;;;;;;;13.11;67.58;97581.00;4930133;29;19961;-57
2022/11/03 13:21:55;;;;;;;;;;;;;;;13.15;67.00;97574.88;4933436;29;19933;-58
2022/11/03 13:24:23;;;;;;;;;;;;;;;13.14;67.16;97568.63;4931433;29;19958;-57
2022/11/03 13:26:51;;;;;;;;;;;;;;;13.08;68.02;97550.88;4924941;29;19927;-58
2022/11/03 13:29:20;;;;;;;;;;;;;;;13.07;67.64;97549.28;4925962;29;19954;-57
2022/11/03 13:31:47;;;;;;;;;;;;;;;13.08;67.87;97551.66;4925261;29;19966;-57
2022/11/03 13:34:16;;;;;;;;;;;;;;;13.08;68.21;97548.94;4934077;29;20456;-57
2022/11/03 13:36:45;;;;;;;;;;;;;;;13.11;67.60;97537.38;4933990;29;19953;-57
2022/11/03 13:39:16;;;;;;;;;;;;;;;13.10;67.50;97530.34;4933507;29;19934;-58
2022/11/03 13:41:44;;;;;;;;;;;;;;;13.11;67.20;97526.47;4925839;29;19927;-57
2022/11/03 13:44:12;;;;;;;;;;;;;;;13.07;67.79;97525.53;4932433;29;19927;-57
2022/11/03 13:46:45;;;;;;;;;;;;;;;13.03;68.25;97521.09;4932527;29;19934;-57
2022/11/03 13:49:14;;;;;;;;;;;;;;;13.04;67.81;97520.75;4931374;29;19931;-57
2022/11/03 13:52:03;;;;;;;;;;;;;;;13.00;68.13;97524.50;4932084;29;19927;-58